sensor_id;sensor_type;location;lat;lon;timestamp;pressure;altitude;pressure_sealevel;temperature;humidity
76195;BME280;64964;48.694;21.206;2023-02-01T00:01:25;97558.78;;;0.39;65.65
76195;BME280;64964;48.694;21.206;2023-02-01T00:03:50;97551.59;;;0.42;65.41
76195;BME280;64964;48.694;21.206;2023-02-01T00:06:15;97549.34;;;0.38;66.38
76195;BME280;64964;48.694;21.206;2023-02-01T00:08:41;97530.56;;;0.34;66.15
76195;BME280;64964;48.694;21.206;2023-02-01T00:11:08;97539.38;;;0.20;67.50
76195;BME280;64964;48.694;21.206;2023-02-01T00:13:36;97528.97;;;0.20;66.74
76195;BME280;64964;48.694;21.206;2023-02-01T00:16:11;97538.91;;;0.15;67.00
76195;BME280;64964;48.694;21.206;2023-02-01T00:18:41;97514.91;;;0.12;67.85
76195;BME280;64964;48.694;21.206;2023-02-01T00:21:06;97511.38;;;0.02;69.01
76195;BME280;64964;48.694;21.206;2023-02-01T00:23:33;97520.59;;;0.06;67.68
76195;BME280;64964;48.694;21.206;2023-02-01T00:26:04;97519.50;;;-0.03;69.34
76195;BME280;64964;48.694;21.206;2023-02-01T00:28:29;97531.34;;;0.01;68.00
76195;BME280;64964;48.694;21.206;2023-02-01T00:30:59;97520.56;;;-0.06;70.41
76195;BME280;64964;48.694;21.206;2023-02-01T00:33:25;97524.72;;;-0.03;69.42
76195;BME280;64964;48.694;21.206;2023-02-01T00:35:51;97523.75;;;-0.02;70.21
76195;BME280;64964;48.694;21.206;2023-02-01T00:38:16;97522.13;;;-0.03;68.99
76195;BME280;64964;48.694;21.206;2023-02-01T00:40:41;97531.34;;;0.01;68.76
76195;BME280;64964;48.694;21.206;2023-02-01T00:43:07;97540.31;;;0.08;68.66
76195;BME280;64964;48.694;21.206;2023-02-01T00:45:32;97545.06;;;0.14;68.36
76195;BME280;64964;48.694;21.206;2023-02-01T00:47:57;97534.19;;;0.20;68.48
76195;BME280;64964;48.694;21.206;2023-02-01T00:50:23;97526.28;;;0.22;68.24
76195;BME280;64964;48.694;21.206;2023-02-01T00:52:48;97516.25;;;0.17;67.80
76195;BME280;64964;48.694;21.206;2023-02-01T00:55:13;97511.50;;;0.11;67.74
76195;BME280;64964;48.694;21.206;2023-02-01T00:57:39;97501.94;;;0.01;69.28
76195;BME280;64964;48.694;21.206;2023-02-01T01:00:04;97508.91;;;0.00;68.17
76195;BME280;64964;48.694;21.206;2023-02-01T01:02:30;97509.22;;;-0.05;69.68
76195;BME280;64964;48.694;21.206;2023-02-01T01:04:55;97500.50;;;-0.04;68.86
76195;BME280;64964;48.694;21.206;2023-02-01T01:07:21;97511.50;;;0.00;68.38
76195;BME280;64964;48.694;21.206;2023-02-01T01:09:46;97502.63;;;0.03;68.49
76195;BME280;64964;48.694;21.206;2023-02-01T01:12:11;97482.91;;;0.11;68.29
76195;BME280;64964;48.694;21.206;2023-02-01T01:14:37;97464.94;;;0.08;69.12
76195;BME280;64964;48.694;21.206;2023-02-01T01:17:02;97475.69;;;0.04;69.23
76195;BME280;64964;48.694;21.206;2023-02-01T01:19:27;97476.50;;;0.04;69.11
76195;BME280;64964;48.694;21.206;2023-02-01T01:21:53;97466.84;;;0.06;68.81
76195;BME280;64964;48.694;21.206;2023-02-01T01:24:18;97460.91;;;0.04;70.37
76195;BME280;64964;48.694;21.206;2023-02-01T01:26:43;97466.38;;;0.01;70.49
76195;BME280;64964;48.694;21.206;2023-02-01T01:29:09;97470.00;;;-0.02;70.52
76195;BME280;64964;48.694;21.206;2023-02-01T01:31:35;97463.78;;;0.01;70.97
76195;BME280;64964;48.694;21.206;2023-02-01T01:34:00;97464.47;;;0.03;70.34
76195;BME280;64964;48.694;21.206;2023-02-01T01:36:26;97464.47;;;0.03;70.46
76195;BME280;64964;48.694;21.206;2023-02-01T01:38:52;97469.56;;;0.05;70.61
76195;BME280;64964;48.694;21.206;2023-02-01T01:41:20;97458.22;;;0.06;70.68
76195;BME280;64964;48.694;21.206;2023-02-01T01:46:29;97451.63;;;0.13;70.95
76195;BME280;64964;48.694;21.206;2023-02-01T01:49:11;97452.31;;;0.15;72.31
76195;BME280;64964;48.694;21.206;2023-02-01T01:51:42;97468.16;;;0.23;71.40
76195;BME280;64964;48.694;21.206;2023-02-01T01:54:24;97458.09;;;0.18;72.07
76195;BME280;64964;48.694;21.206;2023-02-01T01:56:55;97451.84;;;0.21;71.35
76195;BME280;64964;48.694;21.206;2023-02-01T01:59:24;97448.03;;;0.25;71.42
76195;BME280;64964;48.694;21.206;2023-02-01T02:01:50;97442.75;;;0.27;72.12
76195;BME280;64964;48.694;21.206;2023-02-01T02:04:16;97427.03;;;0.28;71.45
76195;BME280;64964;48.694;21.206;2023-02-01T02:06:45;97421.94;;;0.27;71.64
76195;BME280;64964;48.694;21.206;2023-02-01T02:09:13;97424.66;;;0.25;72.40
76195;BME280;64964;48.694;21.206;2023-02-01T02:11:39;97428.09;;;0.26;72.30
76195;BME280;64964;48.694;21.206;2023-02-01T02:14:07;97436.72;;;0.26;72.71
76195;BME280;64964;48.694;21.206;2023-02-01T02:25:33;97456.78;;;0.24;72.74
76195;BME280;64964;48.694;21.206;2023-02-01T02:31:25;97456.69;;;0.26;73.97
76195;BME280;64964;48.694;21.206;2023-02-01T02:48:14;97468.84;;;0.36;73.39
76195;BME280;64964;48.694;21.206;2023-02-01T02:50:55;97459.88;;;0.40;72.24
76195;BME280;64964;48.694;21.206;2023-02-01T02:54:00;97464.84;;;0.43;72.71
76195;BME280;64964;48.694;21.206;2023-02-01T02:56:46;97478.88;;;0.52;71.62
76195;BME280;64964;48.694;21.206;2023-02-01T02:59:30;97473.47;;;0.44;73.76
76195;BME280;64964;48.694;21.206;2023-02-01T03:02:17;97467.06;;;0.37;73.99
76195;BME280;64964;48.694;21.206;2023-02-01T03:05:01;97434.00;;;0.28;74.69
76195;BME280;64964;48.694;21.206;2023-02-01T03:10:26;97475.25;;;0.21;73.04
76195;BME280;64964;48.694;21.206;2023-02-01T03:12:54;97476.78;;;0.23;73.00
76195;BME280;64964;48.694;21.206;2023-02-01T03:15:36;97474.66;;;0.17;73.61
76195;BME280;64964;48.694;21.206;2023-02-01T03:18:10;97470.38;;;0.16;73.21
76195;BME280;64964;48.694;21.206;2023-02-01T03:20:38;97460.47;;;0.10;73.72
76195;BME280;64964;48.694;21.206;2023-02-01T03:23:06;97455.72;;;0.04;73.89
76195;BME280;64964;48.694;21.206;2023-02-01T03:25:32;97446.63;;;-0.02;73.48
76195;BME280;64964;48.694;21.206;2023-02-01T03:28:07;97436.47;;;-0.05;74.21
76195;BME280;64964;48.694;21.206;2023-02-01T03:30:42;97434.13;;;-0.08;73.50
76195;BME280;64964;48.694;21.206;2023-02-01T03:33:15;97445.44;;;-0.09;74.17
76195;BME280;64964;48.694;21.206;2023-02-01T03:41:17;97447.69;;;-0.15;73.64
76195;BME280;64964;48.694;21.206;2023-02-01T03:44:05;97468.81;;;-0.20;73.40
76195;BME280;64964;48.694;21.206;2023-02-01T03:46:41;97472.81;;;-0.27;73.88
76195;BME280;64964;48.694;21.206;2023-02-01T03:49:11;97477.19;;;-0.28;73.69
76195;BME280;64964;48.694;21.206;2023-02-01T03:51:40;97484.75;;;-0.24;73.71
76195;BME280;64964;48.694;21.206;2023-02-01T03:54:08;97480.47;;;-0.26;73.26
76195;BME280;64964;48.694;21.206;2023-02-01T03:56:36;97492.53;;;-0.24;73.45
76195;BME280;64964;48.694;21.206;2023-02-01T03:59:03;97492.53;;;-0.24;73.95
76195;BME280;64964;48.694;21.206;2023-02-01T04:01:30;97490.66;;;-0.22;73.52
76195;BME280;64964;48.694;21.206;2023-02-01T04:03:57;97489.94;;;-0.24;73.27
76195;BME280;64964;48.694;21.206;2023-02-01T04:06:23;97483.19;;;-0.27;73.33
76195;BME280;64964;48.694;21.206;2023-02-01T04:08:48;97488.28;;;-0.26;73.34
76195;BME280;64964;48.694;21.206;2023-02-01T04:11:14;97488.28;;;-0.26;73.03
76195;BME280;64964;48.694;21.206;2023-02-01T04:13:39;97480.00;;;-0.31;73.31
76195;BME280;64964;48.694;21.206;2023-02-01T04:16:05;97468.91;;;-0.33;73.35
76195;BME280;64964;48.694;21.206;2023-02-01T04:18:31;97456.97;;;-0.35;73.44
76195;BME280;64964;48.694;21.206;2023-02-01T04:20:56;97458.75;;;-0.36;73.43
76195;BME280;64964;48.694;21.206;2023-02-01T04:23:21;97452.00;;;-0.38;73.62
76195;BME280;64964;48.694;21.206;2023-02-01T04:25:47;97453.06;;;-0.41;73.54
76195;BME280;64964;48.694;21.206;2023-02-01T04:28:12;97463.69;;;-0.44;73.87
76195;BME280;64964;48.694;21.206;2023-02-01T04:30:38;97459.31;;;-0.43;73.47
76195;BME280;64964;48.694;21.206;2023-02-01T04:33:03;97459.09;;;-0.40;73.67
76195;BME280;64964;48.694;21.206;2023-02-01T04:35:31;97454.50;;;-0.37;73.50
76195;BME280;64964;48.694;21.206;2023-02-01T04:37:57;97468.09;;;-0.33;73.46
76195;BME280;64964;48.694;21.206;2023-02-01T04:40:22;97472.22;;;-0.31;73.48
76195;BME280;64964;48.694;21.206;2023-02-01T04:42:48;97477.19;;;-0.28;73.64
76195;BME280;64964;48.694;21.206;2023-02-01T04:45:13;97491.47;;;-0.22;73.73
76195;BME280;64964;48.694;21.206;2023-02-01T04:47:39;97506.63;;;-0.16;73.73
76195;BME280;64964;48.694;21.206;2023-02-01T04:50:04;97528.56;;;-0.09;73.13
76195;BME280;64964;48.694;21.206;2023-02-01T04:52:31;97545.25;;;-0.11;74.14
76195;BME280;64964;48.694;21.206;2023-02-01T04:54:56;97577.63;;;-0.04;73.24
76195;BME280;64964;48.694;21.206;2023-02-01T04:57:24;97581.75;;;-0.02;73.14
76195;BME280;64964;48.694;21.206;2023-02-01T04:59:49;97586.94;;;-0.02;73.50
76195;BME280;64964;48.694;21.206;2023-02-01T05:02:15;97582.97;;;0.06;73.36
76195;BME280;64964;48.694;21.206;2023-02-01T05:04:40;97593.97;;;0.09;73.46
76195;BME280;64964;48.694;21.206;2023-02-01T05:07:06;97605.66;;;0.15;73.21
76195;BME280;64964;48.694;21.206;2023-02-01T05:09:31;97592.44;;;0.18;73.70
76195;BME280;64964;48.694;21.206;2023-02-01T05:11:56;97577.66;;;0.18;74.39
76195;BME280;64964;48.694;21.206;2023-02-01T05:14:40;97590.31;;;0.23;73.81
76195;BME280;64964;48.694;21.206;2023-02-01T05:17:05;97593.63;;;0.25;74.17
76195;BME280;64964;48.694;21.206;2023-02-01T05:19:31;97574.25;;;0.29;73.93
76195;BME280;64964;48.694;21.206;2023-02-01T05:21:56;97567.06;;;0.21;76.15
76195;BME280;64964;48.694;21.206;2023-02-01T05:24:22;97554.47;;;0.04;78.10
76195;BME280;64964;48.694;21.206;2023-02-01T05:26:48;97552.38;;;0.09;75.00
76195;BME280;64964;48.694;21.206;2023-02-01T05:29:14;97553.19;;;0.10;75.06
76195;BME280;64964;48.694;21.206;2023-02-01T05:31:40;97552.84;;;0.14;75.25
76195;BME280;64964;48.694;21.206;2023-02-01T05:34:06;97558.16;;;0.02;77.63
76195;BME280;64964;48.694;21.206;2023-02-01T05:36:32;97561.78;;;-0.01;77.48
76195;BME280;64964;48.694;21.206;2023-02-01T05:38:57;97561.44;;;-0.08;78.02
76195;BME280;64964;48.694;21.206;2023-02-01T05:41:23;97563.91;;;-0.06;76.26
76195;BME280;64964;48.694;21.206;2023-02-01T05:43:48;97569.44;;;-0.11;77.61
76195;BME280;64964;48.694;21.206;2023-02-01T05:46:14;97569.44;;;-0.11;76.36
76195;BME280;64964;48.694;21.206;2023-02-01T05:48:40;97562.94;;;-0.16;78.22
76195;BME280;64964;48.694;21.206;2023-02-01T05:51:05;97567.06;;;-0.25;80.53
76195;BME280;64964;48.694;21.206;2023-02-01T05:53:31;97561.25;;;-0.17;77.67
76195;BME280;64964;48.694;21.206;2023-02-01T05:55:56;97557.63;;;-0.15;78.19
76195;BME280;64964;48.694;21.206;2023-02-01T05:58:22;97551.13;;;-0.09;77.29
76195;BME280;64964;48.694;21.206;2023-02-01T06:00:47;97563.78;;;-0.05;77.08
76195;BME280;64964;48.694;21.206;2023-02-01T06:03:13;97564.16;;;0.02;76.78
76195;BME280;64964;48.694;21.206;2023-02-01T06:05:38;97558.97;;;0.02;77.51
76195;BME280;64964;48.694;21.206;2023-02-01T06:08:03;97558.00;;;0.03;77.46
76195;BME280;64964;48.694;21.206;2023-02-01T06:10:29;97554.25;;;0.07;77.02
76195;BME280;64964;48.694;21.206;2023-02-01T06:12:54;97555.56;;;0.13;77.17
76195;BME280;64964;48.694;21.206;2023-02-01T06:15:20;97565.72;;;0.16;76.69
76195;BME280;64964;48.694;21.206;2023-02-01T06:17:45;97567.88;;;0.22;75.46
76195;BME280;64964;48.694;21.206;2023-02-01T06:20:12;97568.31;;;0.16;75.61
76195;BME280;64964;48.694;21.206;2023-02-01T06:22:38;97570.69;;;0.19;75.67
76195;BME280;64964;48.694;21.206;2023-02-01T06:25:05;97578.84;;;0.14;75.46
76195;BME280;64964;48.694;21.206;2023-02-01T06:27:31;97575.84;;;0.08;75.85
76195;BME280;64964;48.694;21.206;2023-02-01T06:29:57;97571.75;;;0.05;75.42
76195;BME280;64964;48.694;21.206;2023-02-01T06:32:22;97574.22;;;0.07;75.99
76195;BME280;64964;48.694;21.206;2023-02-01T06:34:48;97572.22;;;0.10;76.06
76195;BME280;64964;48.694;21.206;2023-02-01T06:37:14;97574.47;;;0.15;76.44
76195;BME280;64964;48.694;21.206;2023-02-01T06:39:39;97572.25;;;0.21;76.19
76195;BME280;64964;48.694;21.206;2023-02-01T06:42:05;97558.09;;;0.26;76.01
76195;BME280;64964;48.694;21.206;2023-02-01T06:44:30;97559.22;;;0.10;79.31
76195;BME280;64964;48.694;21.206;2023-02-01T06:46:55;97557.78;;;0.06;77.65
76195;BME280;64964;48.694;21.206;2023-02-01T06:49:21;97554.84;;;0.11;77.20
76195;BME280;64964;48.694;21.206;2023-02-01T06:51:47;97555.44;;;0.14;76.73
76195;BME280;64964;48.694;21.206;2023-02-01T06:54:13;97574.13;;;0.19;75.86
76195;BME280;64964;48.694;21.206;2023-02-01T06:56:38;97573.78;;;0.13;76.35
76195;BME280;64964;48.694;21.206;2023-02-01T06:59:05;97586.63;;;0.14;76.21
76195;BME280;64964;48.694;21.206;2023-02-01T07:01:30;97593.97;;;0.20;76.06
76195;BME280;64964;48.694;21.206;2023-02-01T07:03:56;97593.88;;;0.22;76.00
76195;BME280;64964;48.694;21.206;2023-02-01T07:06:21;97580.53;;;0.27;76.20
76195;BME280;64964;48.694;21.206;2023-02-01T07:08:46;97594.59;;;0.35;76.49
76195;BME280;64964;48.694;21.206;2023-02-01T07:11:13;97598.28;;;0.44;75.94
76195;BME280;64964;48.694;21.206;2023-02-01T07:13:39;97600.16;;;0.53;76.36
76195;BME280;64964;48.694;21.206;2023-02-01T07:16:11;97584.72;;;0.63;76.87
76195;BME280;64964;48.694;21.206;2023-02-01T07:18:37;97577.34;;;0.79;75.91
76195;BME280;64964;48.694;21.206;2023-02-01T07:21:03;97577.34;;;0.90;75.68
76195;BME280;64964;48.694;21.206;2023-02-01T07:23:28;97586.69;;;1.04;75.56
76195;BME280;64964;48.694;21.206;2023-02-01T07:25:59;97597.31;;;1.12;75.55
76195;BME280;64964;48.694;21.206;2023-02-01T07:28:25;97606.91;;;1.23;74.70
76195;BME280;64964;48.694;21.206;2023-02-01T07:30:51;97594.34;;;1.28;75.30
76195;BME280;64964;48.694;21.206;2023-02-01T07:33:21;97591.50;;;1.31;75.11
76195;BME280;64964;48.694;21.206;2023-02-01T07:35:47;97590.09;;;1.38;75.04
76195;BME280;64964;48.694;21.206;2023-02-01T07:38:13;97595.38;;;1.48;74.46
76195;BME280;64964;48.694;21.206;2023-02-01T07:40:39;97587.19;;;1.53;74.48
76195;BME280;64964;48.694;21.206;2023-02-01T07:43:04;97593.22;;;1.53;75.82
76195;BME280;64964;48.694;21.206;2023-02-01T07:45:31;97599.72;;;1.59;75.91
76195;BME280;64964;48.694;21.206;2023-02-01T07:47:57;97605.13;;;1.67;75.05
76195;BME280;64964;48.694;21.206;2023-02-01T07:50:22;97606.31;;;1.74;75.66
76195;BME280;64964;48.694;21.206;2023-02-01T07:52:47;97610.53;;;1.86;74.16
76195;BME280;64964;48.694;21.206;2023-02-01T07:55:13;97603.91;;;1.82;75.10
76195;BME280;64964;48.694;21.206;2023-02-01T07:57:38;97603.03;;;1.93;74.16
76195;BME280;64964;48.694;21.206;2023-02-01T08:00:04;97602.53;;;1.99;74.07
76195;BME280;64964;48.694;21.206;2023-02-01T08:02:48;97597.84;;;2.14;73.56
76195;BME280;64964;48.694;21.206;2023-02-01T08:05:13;97599.44;;;2.26;73.14
76195;BME280;64964;48.694;21.206;2023-02-01T08:07:39;97594.72;;;2.41;72.13
76195;BME280;64964;48.694;21.206;2023-02-01T08:10:04;97590.25;;;2.53;71.73
76195;BME280;64964;48.694;21.206;2023-02-01T08:12:35;97579.47;;;2.67;71.54
76195;BME280;64964;48.694;21.206;2023-02-01T08:15:01;97578.31;;;2.81;71.64
76195;BME280;64964;48.694;21.206;2023-02-01T08:17:49;97577.88;;;3.16;70.60
76195;BME280;64964;48.694;21.206;2023-02-01T08:20:16;97572.03;;;3.62;69.07
76195;BME280;64964;48.694;21.206;2023-02-01T08:22:42;97574.88;;;4.37;66.51
76195;BME280;64964;48.694;21.206;2023-02-01T08:25:07;97574.47;;;5.43;66.57
76195;BME280;64964;48.694;21.206;2023-02-01T08:27:33;97577.31;;;6.65;64.18
76195;BME280;64964;48.694;21.206;2023-02-01T08:29:59;97579.91;;;7.92;60.42
76195;BME280;64964;48.694;21.206;2023-02-01T08:32:25;97577.34;;;9.36;59.47
76195;BME280;64964;48.694;21.206;2023-02-01T08:34:50;97588.22;;;10.64;56.98
76195;BME280;64964;48.694;21.206;2023-02-01T08:37:16;97583.44;;;12.00;53.81
76195;BME280;64964;48.694;21.206;2023-02-01T08:39:41;97595.09;;;13.32;51.80
76195;BME280;64964;48.694;21.206;2023-02-01T08:42:08;97594.56;;;14.25;48.81
76195;BME280;64964;48.694;21.206;2023-02-01T08:44:52;97591.47;;;15.20;47.64
76195;BME280;64964;48.694;21.206;2023-02-01T08:47:17;97603.44;;;15.69;41.56
76195;BME280;64964;48.694;21.206;2023-02-01T08:49:43;97603.91;;;16.30;43.08
76195;BME280;64964;48.694;21.206;2023-02-01T08:52:08;97589.91;;;16.91;42.01
76195;BME280;64964;48.694;21.206;2023-02-01T08:54:33;97587.28;;;17.46;41.51
76195;BME280;64964;48.694;21.206;2023-02-01T08:56:59;97585.16;;;18.03;40.33
76195;BME280;64964;48.694;21.206;2023-02-01T08:59:24;97581.22;;;18.17;37.71
76195;BME280;64964;48.694;21.206;2023-02-01T09:01:49;97572.34;;;18.47;36.38
76195;BME280;64964;48.694;21.206;2023-02-01T09:04:15;97581.38;;;18.88;36.42
76195;BME280;64964;48.694;21.206;2023-02-01T09:06:41;97583.56;;;19.38;36.26
76195;BME280;64964;48.694;21.206;2023-02-01T09:09:06;97578.72;;;20.04;35.71
76195;BME280;64964;48.694;21.206;2023-02-01T09:11:32;97577.75;;;20.55;34.23
76195;BME280;64964;48.694;21.206;2023-02-01T09:13:57;97581.72;;;20.36;31.29
76195;BME280;64964;48.694;21.206;2023-02-01T09:16:23;97578.72;;;20.04;32.19
76195;BME280;64964;48.694;21.206;2023-02-01T09:18:48;97573.66;;;19.27;31.20
76195;BME280;64964;48.694;21.206;2023-02-01T09:21:13;97566.38;;;19.10;33.05
76195;BME280;64964;48.694;21.206;2023-02-01T09:23:39;97562.75;;;18.16;32.24
76195;BME280;64964;48.694;21.206;2023-02-01T09:26:05;97564.06;;;17.95;33.98
76195;BME280;64964;48.694;21.206;2023-02-01T09:28:30;97572.19;;;17.70;34.36
76195;BME280;64964;48.694;21.206;2023-02-01T09:30:57;97578.22;;;17.84;35.07
76195;BME280;64964;48.694;21.206;2023-02-01T09:33:23;97580.66;;;17.67;34.20
76195;BME280;64964;48.694;21.206;2023-02-01T09:36:02;97581.19;;;17.02;33.07
76195;BME280;64964;48.694;21.206;2023-02-01T09:38:28;97577.13;;;16.75;34.96
76195;BME280;64964;48.694;21.206;2023-02-01T09:40:55;97582.75;;;16.35;34.57
76195;BME280;64964;48.694;21.206;2023-02-01T09:48:33;97581.06;;;14.19;37.12
76195;BME280;64964;48.694;21.206;2023-02-01T09:51:02;97579.75;;;13.82;38.09
76195;BME280;64964;48.694;21.206;2023-02-01T09:53:34;97571.09;;;13.19;38.77
76195;BME280;64964;48.694;21.206;2023-02-01T09:58:42;97572.47;;;12.24;41.00
76195;BME280;64964;48.694;21.206;2023-02-01T10:01:28;97572.81;;;11.93;41.92
76195;BME280;64964;48.694;21.206;2023-02-01T10:04:23;97562.31;;;12.06;42.44
76195;BME280;64964;48.694;21.206;2023-02-01T10:07:12;97562.66;;;11.82;42.05
76195;BME280;64964;48.694;21.206;2023-02-01T10:18:19;97535.25;;;11.89;42.05
76195;BME280;64964;48.694;21.206;2023-02-01T10:26:21;97523.94;;;10.93;42.68
76195;BME280;64964;48.694;21.206;2023-02-01T10:29:17;97522.69;;;10.45;43.43
76195;BME280;64964;48.694;21.206;2023-02-01T10:31:44;97516.59;;;9.98;44.36
76195;BME280;64964;48.694;21.206;2023-02-01T10:36:55;97526.75;;;9.02;46.31
76195;BME280;64964;48.694;21.206;2023-02-01T10:39:21;97513.34;;;8.72;46.81
76195;BME280;64964;48.694;21.206;2023-02-01T10:41:47;97512.44;;;8.48;47.59
76195;BME280;64964;48.694;21.206;2023-02-01T10:44:16;97513.41;;;8.47;47.86
76195;BME280;64964;48.694;21.206;2023-02-01T10:46:43;97511.91;;;8.61;47.90
76195;BME280;64964;48.694;21.206;2023-02-01T10:49:16;97507.72;;;8.83;47.77
76195;BME280;64964;48.694;21.206;2023-02-01T10:51:47;97509.97;;;8.94;47.37
76195;BME280;64964;48.694;21.206;2023-02-01T10:54:17;97497.31;;;8.82;47.51
76195;BME280;64964;48.694;21.206;2023-02-01T10:56:45;97497.34;;;8.73;47.98
76195;BME280;64964;48.694;21.206;2023-02-01T10:59:20;97498.88;;;8.68;48.23
76195;BME280;64964;48.694;21.206;2023-02-01T11:01:49;97500.47;;;8.77;48.47
76195;BME280;64964;48.694;21.206;2023-02-01T11:04:19;97500.13;;;8.80;47.94
76195;BME280;64964;48.694;21.206;2023-02-01T11:09:40;97497.09;;;8.52;48.62
76195;BME280;64964;48.694;21.206;2023-02-01T11:12:41;97489.91;;;8.38;48.81
76195;BME280;64964;48.694;21.206;2023-02-01T11:15:18;97484.28;;;8.33;49.30
76195;BME280;64964;48.694;21.206;2023-02-01T11:17:47;97468.19;;;8.19;49.19
76195;BME280;64964;48.694;21.206;2023-02-01T11:20:18;97465.56;;;8.03;49.47
76195;BME280;64964;48.694;21.206;2023-02-01T11:22:49;97460.16;;;7.88;49.91
76195;BME280;64964;48.694;21.206;2023-02-01T11:25:18;97466.91;;;7.83;50.38
76195;BME280;64964;48.694;21.206;2023-02-01T11:27:44;97465.59;;;7.79;50.35
76195;BME280;64964;48.694;21.206;2023-02-01T11:30:15;97455.38;;;7.59;50.58
76195;BME280;64964;48.694;21.206;2023-02-01T11:32:42;97460.31;;;7.46;50.73
76195;BME280;64964;48.694;21.206;2023-02-01T11:35:15;97452.22;;;7.31;50.83
76195;BME280;64964;48.694;21.206;2023-02-01T11:37:42;97452.03;;;7.16;51.02
76195;BME280;64964;48.694;21.206;2023-02-01T11:43:14;97455.75;;;6.89;52.42
76195;BME280;64964;48.694;21.206;2023-02-01T11:45:41;97443.75;;;6.87;52.08
76195;BME280;64964;48.694;21.206;2023-02-01T11:48:18;97443.09;;;6.85;52.32
76195;BME280;64964;48.694;21.206;2023-02-01T11:51:14;97442.78;;;6.96;52.01
76195;BME280;64964;48.694;21.206;2023-02-01T11:59:12;97436.44;;;7.23;51.31
76195;BME280;64964;48.694;21.206;2023-02-01T12:15:26;97415.03;;;7.02;50.99
76195;BME280;64964;48.694;21.206;2023-02-01T12:26:39;97406.69;;;6.56;51.96
76195;BME280;64964;48.694;21.206;2023-02-01T12:32:09;97395.41;;;6.21;54.39
76195;BME280;64964;48.694;21.206;2023-02-01T12:40:06;97391.53;;;5.55;56.92
76195;BME280;64964;48.694;21.206;2023-02-01T12:42:41;97387.31;;;5.36;57.69
76195;BME280;64964;48.694;21.206;2023-02-01T12:45:22;97384.09;;;5.24;58.32
76195;BME280;64964;48.694;21.206;2023-02-01T12:47:53;97386.72;;;5.24;57.73
76195;BME280;64964;48.694;21.206;2023-02-01T12:53:07;97371.91;;;5.15;59.18
76195;BME280;64964;48.694;21.206;2023-02-01T12:55:38;97379.66;;;5.25;58.05
76195;BME280;64964;48.694;21.206;2023-02-01T13:01:03;97378.69;;;5.44;58.18
76195;BME280;64964;48.694;21.206;2023-02-01T13:06:53;97371.44;;;5.64;59.82
76195;BME280;64964;48.694;21.206;2023-02-01T13:09:23;97370.66;;;5.71;57.84
76195;BME280;64964;48.694;21.206;2023-02-01T13:11:53;97364.81;;;5.78;57.65
76195;BME280;64964;48.694;21.206;2023-02-01T13:17:16;97355.03;;;5.88;58.69
76195;BME280;64964;48.694;21.206;2023-02-01T13:24:56;97358.78;;;6.11;58.51
76195;BME280;64964;48.694;21.206;2023-02-01T13:27:26;97366.84;;;6.18;58.04
76195;BME280;64964;48.694;21.206;2023-02-01T13:29:59;97365.53;;;6.22;58.32
76195;BME280;64964;48.694;21.206;2023-02-01T13:41:04;97370.00;;;6.30;58.96
76195;BME280;64964;48.694;21.206;2023-02-01T13:43:33;97376.75;;;6.32;58.44
76195;BME280;64964;48.694;21.206;2023-02-01T13:46:05;97375.25;;;6.30;58.88
76195;BME280;64964;48.694;21.206;2023-02-01T13:48:45;97381.00;;;6.25;57.99
76195;BME280;64964;48.694;21.206;2023-02-01T13:51:12;97371.16;;;6.27;57.95
76195;BME280;64964;48.694;21.206;2023-02-01T13:53:45;97376.22;;;6.20;57.47
76195;BME280;64964;48.694;21.206;2023-02-01T13:56:20;97378.66;;;6.22;57.79
76195;BME280;64964;48.694;21.206;2023-02-01T13:58:48;97380.69;;;6.28;57.82
76195;BME280;64964;48.694;21.206;2023-02-01T14:03:53;97380.53;;;6.38;57.59
76195;BME280;64964;48.694;21.206;2023-02-01T14:09:18;97360.22;;;6.40;57.03
76195;BME280;64964;48.694;21.206;2023-02-01T14:11:48;97354.81;;;6.41;56.97
76195;BME280;64964;48.694;21.206;2023-02-01T14:16:39;97344.91;;;6.35;56.46
76195;BME280;64964;48.694;21.206;2023-02-01T14:19:08;97346.91;;;6.33;56.35
76195;BME280;64964;48.694;21.206;2023-02-01T14:21:47;97347.22;;;6.30;55.87
76195;BME280;64964;48.694;21.206;2023-02-01T14:24:20;97347.38;;;6.29;56.26
76195;BME280;64964;48.694;21.206;2023-02-01T14:26:53;97337.66;;;6.21;56.42
76195;BME280;64964;48.694;21.206;2023-02-01T14:32:19;97335.47;;;6.08;55.81
76195;BME280;64964;48.694;21.206;2023-02-01T14:37:35;97332.59;;;5.93;56.12
76195;BME280;64964;48.694;21.206;2023-02-01T14:40:04;97322.72;;;5.87;56.60
76195;BME280;64964;48.694;21.206;2023-02-01T14:42:49;97322.50;;;5.81;56.68
76195;BME280;64964;48.694;21.206;2023-02-01T15:01:02;97331.44;;;5.18;58.15
76195;BME280;64964;48.694;21.206;2023-02-01T15:06:30;97337.91;;;4.88;58.98
76195;BME280;64964;48.694;21.206;2023-02-01T15:09:00;97344.22;;;4.77;58.42
76195;BME280;64964;48.694;21.206;2023-02-01T15:11:27;97341.56;;;4.59;58.85
76195;BME280;64964;48.694;21.206;2023-02-01T15:13:53;97343.59;;;4.47;59.00
76195;BME280;64964;48.694;21.206;2023-02-01T15:16:21;97337.56;;;4.37;59.10
76195;BME280;64964;48.694;21.206;2023-02-01T15:18:47;97336.66;;;4.29;59.44
76195;BME280;64964;48.694;21.206;2023-02-01T15:21:23;97335.91;;;4.18;60.41
76195;BME280;64964;48.694;21.206;2023-02-01T15:23:50;97337.44;;;4.11;59.96
76195;BME280;64964;48.694;21.206;2023-02-01T15:26:34;97335.97;;;3.99;60.00
76195;BME280;64964;48.694;21.206;2023-02-01T15:29:00;97344.81;;;3.88;60.35
76195;BME280;64964;48.694;21.206;2023-02-01T15:31:37;97348.19;;;3.81;61.47
76195;BME280;64964;48.694;21.206;2023-02-01T15:34:03;97348.59;;;3.76;60.84
76195;BME280;64964;48.694;21.206;2023-02-01T15:36:28;97350.81;;;3.71;60.84
76195;BME280;64964;48.694;21.206;2023-02-01T15:41:38;97353.06;;;3.56;61.23
76195;BME280;64964;48.694;21.206;2023-02-01T15:44:13;97359.81;;;3.49;61.00
76195;BME280;64964;48.694;21.206;2023-02-01T15:46:44;97356.25;;;3.40;61.39
76195;BME280;64964;48.694;21.206;2023-02-01T15:49:40;97358.75;;;3.32;61.59
76195;BME280;64964;48.694;21.206;2023-02-01T15:52:21;97344.88;;;3.22;63.52